Flight Track Log - Related Links

Times and Time Zones

All times are in EDT time to prevent confusion due to time zone crossing. See the TCF6008 flight status page for this flight to view local times or setup timezone preferences in your user account.

Time Position Orientation Groundspeed Altitude Reporting Facility
EDT Latitude Longitude Course Direction KTS MPH feet Rate Location/Type
Tue 06:30:33 PM 42.9500 -87.8833 124° Southeast 149 171 1,600  Level KMKE
Tue 06:30:58 PM 42.9508 -87.8567 88° East 154 177 2,400 1,586 Climbing Chicago Center
Tue 06:32:00 PM 42.8992 -87.8642 186° South 235 270 3,900 1,790 Climbing Chicago Center
Tue 06:33:00 PM 42.8868 -87.2479 185° South  Level Estimated
Tue 06:33:02 PM 42.8547 -87.9389 231° Southwest 254 292 6,100  Level Chicago Center
Tue 06:34:00 PM 42.8712 -87.0859 180° South  Level Estimated
Tue 06:34:04 PM 42.8092 -88.0214 233° Southwest 269 310 9,500  Level Chicago Center
Tue 06:35:00 PM 42.8554 -86.9239 200° South  Level Estimated
Tue 06:35:06 PM 42.7403 -88.0586 202° Southwest 300 345 11,500  Level Chicago Center
Tue 06:36:00 PM 42.8398 -86.7667 124° Southeast  Level Estimated
Tue 06:36:08 PM 42.6361 -88.0533 178° South 320 368 15,300  Level Chicago Center
Tue 06:37:10 PM 42.5486 -88.0075 159° South 355 409 17,600 2,177 Climbing Chicago Center
Tue 06:38:12 PM 42.4667 -87.9297 145° Southeast 360 414 19,800 2,081 Climbing Chicago Center
Tue 06:39:14 PM 42.3836 -87.8492 144° Southeast 365 420 21,900 2,081 Climbing Chicago Center
Tue 06:40:16 PM 42.2931 -87.7622 145° Southeast 373 429 24,100 1,887 Climbing Chicago Center
Tue 06:41:18 PM 42.2094 -87.6822 145° Southeast 371 427 25,800 1,355 Climbing Chicago Center
Tue 06:42:20 PM 42.1628 -87.5444 115° Southeast 410 472 26,900 1,210 Climbing Chicago Center
Tue 06:43:22 PM 42.1381 -87.3822 102° East 437 503 28,300 1,161 Climbing Chicago Center
Tue 06:44:24 PM 42.1147 -87.2203 101° East 442 509 29,300 1,016 Climbing Chicago Center
Tue 06:45:26 PM 42.0825 -87.0169 102° East 460 529 30,400 968 Climbing Chicago Center
Tue 06:46:28 PM 42.0544 -86.8417 102° East 476 548 31,300 823 Climbing Chicago Center
Tue 06:47:30 PM 42.0306 -86.6847 102° East 479 551 32,100 919 Climbing Chicago Center
Tue 06:48:32 PM 41.9967 -86.4717 102° East 486 559 33,200 968 Climbing Chicago Center
Tue 06:49:34 PM 41.9681 -86.2936 102° East 486 559 34,100 871 Climbing Chicago Center
Tue 06:50:36 PM 41.9464 -86.1186 99° East 477 549 35,000 435 Climbing Chicago Center
Tue 06:51:38 PM 41.9306 -85.9428 97° East 474 545 35,000  Level Chicago Center
Tue 06:52:40 PM 41.9139 -85.7706 97° East 466 536 35,000 48 Level Chicago Center
Tue 06:53:42 PM 41.8986 -85.6078 97° East 443 510 35,100 290 Climbing Chicago Center
Tue 06:54:44 PM 41.8825 -85.4378 97° East 453 521 35,600 532 Climbing Chicago Center
Tue 06:55:46 PM 41.8658 -85.2647 97° East 460 529 36,200 574 Climbing Chicago Center
Tue 06:56:39 PM 41.8486 -85.0856 97° East 452 520 36,700 425 Climbing Cleveland Center
Tue 06:57:39 PM 41.8322 -84.9117 97° East 457 526 37,000 150 Climbing Cleveland Center
Tue 06:58:39 PM 41.8117 -84.7347 99° East 468 539 37,000  Level Cleveland Center
Tue 06:59:39 PM 41.7931 -84.5550 98° East 473 544 37,000  Level Cleveland Center
Tue 07:00:39 PM 41.7764 -84.3758 97° East 479 551 37,000  Level Cleveland Center
Tue 07:01:39 PM 41.7606 -84.2161 98° East 485 558 37,000  Level Cleveland Center
Tue 07:02:39 PM 41.7494 -84.0344 95° East 485 558 37,000  Level Cleveland Center
Tue 07:03:39 PM 41.7381 -83.8531 95° East 485 558 37,000  Level Cleveland Center
Tue 07:04:39 PM 41.7267 -83.6717 95° East 485 558 37,000  Level Cleveland Center
Tue 07:05:39 PM 41.7147 -83.4900 95° East 485 558 37,000  Level Cleveland Center
Tue 07:06:39 PM 41.6986 -83.2892 96° East 490 564 37,000  Level Cleveland Center
Tue 07:07:39 PM 41.6861 -83.1078 95° East 490 564 37,000  Level Cleveland Center
Tue 07:08:39 PM 41.6714 -82.9239 96° East 490 564 37,000  Level Cleveland Center
Tue 07:09:39 PM 41.6603 -82.7400 95° East 490 564 37,000  Level Cleveland Center
Tue 07:10:39 PM 41.6464 -82.5811 97° East 490 564 37,000  Level Cleveland Center
Tue 07:11:39 PM 41.6331 -82.3944 95° East 490 564 37,000  Level Cleveland Center
Tue 07:12:39 PM 41.6189 -82.2136 96° East 496 571 37,000  Level Cleveland Center
Tue 07:13:39 PM 41.6031 -82.0103 96° East 501 577 37,000  Level Cleveland Center
Tue 07:14:39 PM 41.5883 -81.8269 96° East 501 577 37,000  Level Cleveland Center
Tue 07:15:39 PM 41.5714 -81.6461 97° East 501 577 37,000  Level Cleveland Center
Tue 07:16:39 PM 41.5564 -81.4600 96° East 501 577 37,000  Level Cleveland Center
Tue 07:17:39 PM 41.5389 -81.2794 97° East 501 577 37,000  Level Cleveland Center
Tue 07:18:39 PM 41.5231 -81.1128 97° East 501 577 37,000  Level Cleveland Center
Tue 07:19:39 PM 41.5072 -80.9325 97° East 496 571 37,000  Level Cleveland Center
Tue 07:20:39 PM 41.4908 -80.7439 97° East 502 578 37,000  Level Cleveland Center
Tue 07:21:39 PM 41.4722 -80.5611 98° East 502 578 37,000  Level Cleveland Center
Tue 07:22:39 PM 41.4553 -80.3781 97° East 502 578 37,000  Level Cleveland Center
Tue 07:23:39 PM 41.4361 -80.1789 97° East 502 578 37,000  Level Cleveland Center
Tue 07:24:39 PM 41.4186 -79.9933 97° East 502 578 37,000  Level Cleveland Center
Tue 07:25:39 PM 41.4011 -79.8358 98° East 492 566 37,000  Level Cleveland Center
Tue 07:26:39 PM 41.3808 -79.6533 98° East 497 572 37,000  Level Cleveland Center
Tue 07:27:39 PM 41.3625 -79.4544 97° East 497 572 37,000  Level Cleveland Center
Tue 07:28:39 PM 41.3483 -79.3136 98° East 492 566 37,000  Level Cleveland Center
Tue 07:29:39 PM 41.3272 -79.1175 98° East 482 555 37,000  Level Cleveland Center
Tue 07:30:39 PM 41.3036 -78.9164 99° East 482 555 37,000  Level Cleveland Center
Tue 07:31:39 PM 41.2844 -78.7428 98° East 489 563 37,000  Level Cleveland Center
Tue 07:32:39 PM 41.2650 -78.5747 99° East 478 550 37,000  Level Cleveland Center
Tue 07:33:39 PM 41.2472 -78.4042 98° East 473 544 37,000  Level Cleveland Center
Tue 07:33:58 PM 41.2381 -78.3453 102° East 462 532 37,000 -1,443 Level New York Center
Tue 07:34:58 PM 41.2175 -78.1747 99° East 473 544 35,100 -992 Descending New York Center
Tue 07:35:59 PM 41.1969 -78.0014 99° East 473 544 35,000 -49 Descending New York Center
Tue 07:37:00 PM 41.1742 -77.8253 100° East 473 544 35,000  Level New York Center
Tue 07:37:59 PM 41.1531 -77.6522 99° East 473 544 35,000  Level New York Center
Tue 07:39:00 PM 41.1300 -77.4761 100° East 473 544 35,000 -458 Level New York Center
Tue 07:39:57 PM 41.1058 -77.3086 101° East 473 544 34,100 -1,714 Descending New York Center
Tue 07:40:59 PM 41.0861 -77.1386 99° East 473 544 31,600 439 Descending New York Center
Tue 07:42:00 PM 41.0639 -76.9686 100° East 473 544 35,000 -2,471 Climbing New York Center
Tue 07:42:58 PM 41.0392 -76.8014 101° East 473 544 26,700 -5,441 Descending New York Center
Tue 07:43:58 PM 41.0142 -76.6339 101° East 468 539 24,300 -2,331 Descending New York Center
Tue 07:44:59 PM 40.9778 -76.4797 107° East 451 519 22,000 -2,262 Descending New York Center
Tue 07:46:00 PM 40.9447 -76.3478 108° East 435 501 19,700 -2,033 Descending New York Center
Tue 07:47:00 PM 40.9117 -76.2050 107° East 413 475 17,900 -1,897 Descending New York Center
Tue 07:47:57 PM 40.8747 -76.0539 108° East 395 455 16,000 -1,627 Descending New York Center
Tue 07:48:58 PM 40.8431 -75.9225 108° East 384 442 14,700 -1,250 Descending New York Center
Tue 07:49:57 PM 40.8147 -75.8078 108° East 372 428 13,500 -850 Descending New York Center
Tue 07:50:58 PM 40.7825 -75.6822 109° East 372 428 13,000 -246 Descending New York Center
Tue 07:51:59 PM 40.7439 -75.5561 112° Southeast 372 428 13,000  Level New York Center
Tue 07:53:00 PM 40.6994 -75.4161 113° Southeast 372 428 13,000  Level New York Center
Tue 07:54:00 PM 40.6583 -75.2931 114° Southeast 372 428 13,000 -303 Level New York Center
Tue 07:54:59 PM 40.6231 -75.1814 113° Southeast 367 422 12,400 -1,436 Descending New York Center
Tue 07:55:57 PM 40.5781 -75.0417 113° Southeast 361 415 10,200 -1,210 Descending New York Center
Tue 07:56:58 PM 40.5408 -74.9192 112° Southeast 361 415 10,000 -141 Descending New York Center
Tue 07:57:22 PM 40.5333 -74.8667 101° East 358 412 10,000  Level New York TRACON
Tue 07:58:22 PM 40.4833 -74.7500 119° Southeast 344 396 10,000  Level New York TRACON
Tue 07:59:22 PM 40.4500 -74.6333 111° Southeast 343 395 10,000  Level New York TRACON
Tue 08:00:22 PM 40.4333 -74.5167 101° East 337 388 10,000 -762 Level New York TRACON
Tue 08:01:28 PM 40.4667 -74.4000 69° East 322 371 8,400 -1,429 Descending New York TRACON
Tue 08:02:28 PM 40.5000 -74.2833 69° East 304 350 7,000 -700 Descending New York TRACON
Tue 08:03:28 PM 40.5167 -74.1833 78° East 309 356 7,000 -645 Level New York TRACON
Tue 08:04:29 PM 40.5667 -74.0833 57° Northeast 298 343 5,700 -1,500 Descending New York TRACON
Tue 08:05:28 PM 40.6333 -74.0500 21° North 289 333 4,000 -857 Descending New York TRACON
Tue 08:06:28 PM 40.7167 -74.0167 17° North 293 337 4,000  Level New York TRACON
Tue 08:07:22 PM 40.7833 -73.9833 21° North 303 349 4,000 -421 Level New York TRACON
Tue 08:08:22 PM 40.8500 -73.9333 30° Northeast 295 339 3,200 -850 Descending New York TRACON
Tue 08:09:22 PM 40.9167 -73.8667 37° Northeast 294 338 2,300 -600 Descending New York TRACON
Tue 08:10:22 PM 40.9167 -73.8000 90° East 256 295 2,000 -200 Descending New York TRACON
Tue 08:11:22 PM 40.8667 -73.8000 180° South 169 194 1,900 -100 Descending New York TRACON

Login

Don't have an account? Register now (free) for customized features, flight alerts, and more!